sensor_id;sensor_type;location;lat;lon;timestamp;temperature;humidity
55369;DHT22;41247;49.736;8.752;2023-03-14T00:03:18;9.20;99.90
55369;DHT22;41247;49.736;8.752;2023-03-14T00:06:59;9.20;99.90
55369;DHT22;41247;49.736;8.752;2023-03-14T00:10:39;9.20;99.90
55369;DHT22;41247;49.736;8.752;2023-03-14T00:14:20;9.20;99.90
55369;DHT22;41247;49.736;8.752;2023-03-14T00:18:01;9.20;99.90
55369;DHT22;41247;49.736;8.752;2023-03-14T00:21:41;9.20;99.90
55369;DHT22;41247;49.736;8.752;2023-03-14T00:25:22;9.20;99.90
55369;DHT22;41247;49.736;8.752;2023-03-14T00:29:03;9.20;99.90
55369;DHT22;41247;49.736;8.752;2023-03-14T00:32:43;9.20;99.90
55369;DHT22;41247;49.736;8.752;2023-03-14T00:36:24;9.20;99.90
55369;DHT22;41247;49.736;8.752;2023-03-14T00:40:05;9.30;99.90
55369;DHT22;41247;49.736;8.752;2023-03-14T00:43:46;9.20;99.90
55369;DHT22;41247;49.736;8.752;2023-03-14T00:47:27;9.20;99.90
55369;DHT22;41247;49.736;8.752;2023-03-14T00:51:08;9.20;99.90
55369;DHT22;41247;49.736;8.752;2023-03-14T00:54:49;9.20;99.90
55369;DHT22;41247;49.736;8.752;2023-03-14T00:58:29;9.20;99.90
55369;DHT22;41247;49.736;8.752;2023-03-14T01:02:10;9.20;99.90
55369;DHT22;41247;49.736;8.752;2023-03-14T01:05:51;9.20;99.90
55369;DHT22;41247;49.736;8.752;2023-03-14T01:09:31;9.10;99.90
55369;DHT22;41247;49.736;8.752;2023-03-14T01:13:12;9.10;99.90
55369;DHT22;41247;49.736;8.752;2023-03-14T01:16:53;9.10;99.90
55369;DHT22;41247;49.736;8.752;2023-03-14T01:20:34;9.10;99.90
55369;DHT22;41247;49.736;8.752;2023-03-14T01:24:17;9.20;99.90
55369;DHT22;41247;49.736;8.752;2023-03-14T01:27:57;9.20;99.90
55369;DHT22;41247;49.736;8.752;2023-03-14T01:31:38;9.20;99.90
55369;DHT22;41247;49.736;8.752;2023-03-14T01:35:19;9.20;99.90
55369;DHT22;41247;49.736;8.752;2023-03-14T01:38:59;9.20;99.90
55369;DHT22;41247;49.736;8.752;2023-03-14T01:42:54;9.20;99.90
55369;DHT22;41247;49.736;8.752;2023-03-14T01:46:39;9.30;99.90
55369;DHT22;41247;49.736;8.752;2023-03-14T01:50:23;9.30;99.90
55369;DHT22;41247;49.736;8.752;2023-03-14T01:54:12;9.30;99.90
55369;DHT22;41247;49.736;8.752;2023-03-14T01:58:00;9.30;99.90
55369;DHT22;41247;49.736;8.752;2023-03-14T02:01:44;9.30;99.90
55369;DHT22;41247;49.736;8.752;2023-03-14T02:05:31;9.30;99.90
55369;DHT22;41247;49.736;8.752;2023-03-14T02:09:13;9.30;99.90
55369;DHT22;41247;49.736;8.752;2023-03-14T02:12:55;9.30;99.90
55369;DHT22;41247;49.736;8.752;2023-03-14T02:16:37;9.30;99.90
55369;DHT22;41247;49.736;8.752;2023-03-14T02:24:36;9.20;99.90
55369;DHT22;41247;49.736;8.752;2023-03-14T02:28:20;9.10;99.90
55369;DHT22;41247;49.736;8.752;2023-03-14T02:32:02;9.20;99.90
55369;DHT22;41247;49.736;8.752;2023-03-14T02:35:52;9.20;99.90
55369;DHT22;41247;49.736;8.752;2023-03-14T02:39:40;9.20;99.90
55369;DHT22;41247;49.736;8.752;2023-03-14T02:43:23;9.20;99.90
55369;DHT22;41247;49.736;8.752;2023-03-14T02:47:04;9.10;99.90
55369;DHT22;41247;49.736;8.752;2023-03-14T02:50:47;9.10;99.90
55369;DHT22;41247;49.736;8.752;2023-03-14T02:54:28;9.00;99.90
55369;DHT22;41247;49.736;8.752;2023-03-14T02:58:09;9.00;99.90
55369;DHT22;41247;49.736;8.752;2023-03-14T03:01:49;9.00;99.90
55369;DHT22;41247;49.736;8.752;2023-03-14T03:05:30;9.00;99.90
55369;DHT22;41247;49.736;8.752;2023-03-14T03:09:11;9.10;99.90
55369;DHT22;41247;49.736;8.752;2023-03-14T03:12:51;9.10;99.90
55369;DHT22;41247;49.736;8.752;2023-03-14T03:16:32;9.10;99.90
55369;DHT22;41247;49.736;8.752;2023-03-14T03:20:12;9.10;99.90
55369;DHT22;41247;49.736;8.752;2023-03-14T03:23:53;9.10;99.90
55369;DHT22;41247;49.736;8.752;2023-03-14T03:27:35;9.00;99.90
55369;DHT22;41247;49.736;8.752;2023-03-14T03:31:16;9.00;99.90
55369;DHT22;41247;49.736;8.752;2023-03-14T03:34:57;8.90;99.90
55369;DHT22;41247;49.736;8.752;2023-03-14T03:38:37;8.90;99.90
55369;DHT22;41247;49.736;8.752;2023-03-14T03:42:18;8.90;99.90
55369;DHT22;41247;49.736;8.752;2023-03-14T03:46:03;8.90;99.90
55369;DHT22;41247;49.736;8.752;2023-03-14T03:49:44;8.80;99.90
55369;DHT22;41247;49.736;8.752;2023-03-14T03:53:25;8.70;99.90
55369;DHT22;41247;49.736;8.752;2023-03-14T03:57:06;8.70;99.90
55369;DHT22;41247;49.736;8.752;2023-03-14T04:00:47;8.70;99.90
55369;DHT22;41247;49.736;8.752;2023-03-14T04:04:27;8.70;99.90
55369;DHT22;41247;49.736;8.752;2023-03-14T04:08:08;8.70;99.90
55369;DHT22;41247;49.736;8.752;2023-03-14T04:11:48;8.70;99.90
55369;DHT22;41247;49.736;8.752;2023-03-14T04:15:29;8.70;99.90
55369;DHT22;41247;49.736;8.752;2023-03-14T04:19:10;8.70;99.90
55369;DHT22;41247;49.736;8.752;2023-03-14T04:22:50;8.70;99.90
55369;DHT22;41247;49.736;8.752;2023-03-14T04:26:31;8.60;99.90
55369;DHT22;41247;49.736;8.752;2023-03-14T04:30:11;8.70;99.90
55369;DHT22;41247;49.736;8.752;2023-03-14T04:33:52;8.80;99.90
55369;DHT22;41247;49.736;8.752;2023-03-14T04:37:33;8.80;99.90
55369;DHT22;41247;49.736;8.752;2023-03-14T04:41:13;8.80;99.90
55369;DHT22;41247;49.736;8.752;2023-03-14T04:44:54;8.80;99.90
55369;DHT22;41247;49.736;8.752;2023-03-14T04:48:34;8.80;99.90
55369;DHT22;41247;49.736;8.752;2023-03-14T04:52:15;8.80;99.90
55369;DHT22;41247;49.736;8.752;2023-03-14T04:55:56;8.80;99.90
55369;DHT22;41247;49.736;8.752;2023-03-14T04:59:36;8.80;99.90
55369;DHT22;41247;49.736;8.752;2023-03-14T05:03:18;8.80;99.90
55369;DHT22;41247;49.736;8.752;2023-03-14T05:06:59;8.80;99.90
55369;DHT22;41247;49.736;8.752;2023-03-14T05:10:40;8.80;99.90
55369;DHT22;41247;49.736;8.752;2023-03-14T05:14:20;8.80;99.90
55369;DHT22;41247;49.736;8.752;2023-03-14T05:18:01;8.80;99.90
55369;DHT22;41247;49.736;8.752;2023-03-14T05:21:41;8.80;99.90
55369;DHT22;41247;49.736;8.752;2023-03-14T05:25:22;8.80;99.90
55369;DHT22;41247;49.736;8.752;2023-03-14T05:29:03;8.80;99.90
55369;DHT22;41247;49.736;8.752;2023-03-14T05:32:43;8.80;99.90
55369;DHT22;41247;49.736;8.752;2023-03-14T05:36:24;8.80;99.90
55369;DHT22;41247;49.736;8.752;2023-03-14T05:40:05;8.80;99.90
55369;DHT22;41247;49.736;8.752;2023-03-14T05:43:46;8.80;99.90
55369;DHT22;41247;49.736;8.752;2023-03-14T05:47:28;8.80;99.90
55369;DHT22;41247;49.736;8.752;2023-03-14T05:51:08;8.80;99.90
55369;DHT22;41247;49.736;8.752;2023-03-14T05:54:49;8.80;99.90
55369;DHT22;41247;49.736;8.752;2023-03-14T05:58:29;8.80;99.90
55369;DHT22;41247;49.736;8.752;2023-03-14T06:02:10;8.80;99.90
55369;DHT22;41247;49.736;8.752;2023-03-14T06:05:50;8.80;99.90
55369;DHT22;41247;49.736;8.752;2023-03-14T06:09:32;8.70;99.90
55369;DHT22;41247;49.736;8.752;2023-03-14T06:13:12;8.70;99.90
55369;DHT22;41247;49.736;8.752;2023-03-14T06:16:53;8.70;99.90
55369;DHT22;41247;49.736;8.752;2023-03-14T06:20:36;8.70;99.90
55369;DHT22;41247;49.736;8.752;2023-03-14T06:24:17;8.70;99.90
55369;DHT22;41247;49.736;8.752;2023-03-14T06:27:58;8.70;99.90
55369;DHT22;41247;49.736;8.752;2023-03-14T06:31:39;8.70;99.90
55369;DHT22;41247;49.736;8.752;2023-03-14T06:35:19;8.70;99.90
55369;DHT22;41247;49.736;8.752;2023-03-14T06:39:00;8.70;99.90
55369;DHT22;41247;49.736;8.752;2023-03-14T06:42:40;8.70;99.90
55369;DHT22;41247;49.736;8.752;2023-03-14T06:46:21;8.70;99.90
55369;DHT22;41247;49.736;8.752;2023-03-14T06:50:02;8.50;99.90
55369;DHT22;41247;49.736;8.752;2023-03-14T06:53:43;8.30;99.90
55369;DHT22;41247;49.736;8.752;2023-03-14T06:57:23;8.10;99.90
55369;DHT22;41247;49.736;8.752;2023-03-14T07:01:04;8.00;99.90
55369;DHT22;41247;49.736;8.752;2023-03-14T07:04:45;7.90;99.90
55369;DHT22;41247;49.736;8.752;2023-03-14T07:08:26;7.90;99.90
55369;DHT22;41247;49.736;8.752;2023-03-14T07:12:07;8.00;99.90
55369;DHT22;41247;49.736;8.752;2023-03-14T07:15:47;8.00;99.90
55369;DHT22;41247;49.736;8.752;2023-03-14T07:19:28;8.10;99.90
55369;DHT22;41247;49.736;8.752;2023-03-14T07:23:08;8.10;99.90
55369;DHT22;41247;49.736;8.752;2023-03-14T07:26:49;8.30;99.90
55369;DHT22;41247;49.736;8.752;2023-03-14T07:30:30;8.40;99.90
55369;DHT22;41247;49.736;8.752;2023-03-14T07:34:10;8.50;99.90
55369;DHT22;41247;49.736;8.752;2023-03-14T07:37:51;8.50;99.90
55369;DHT22;41247;49.736;8.752;2023-03-14T07:41:32;8.50;99.90
55369;DHT22;41247;49.736;8.752;2023-03-14T07:45:13;8.50;99.90
55369;DHT22;41247;49.736;8.752;2023-03-14T07:48:53;8.60;99.90
55369;DHT22;41247;49.736;8.752;2023-03-14T07:52:34;8.60;99.90
55369;DHT22;41247;49.736;8.752;2023-03-14T07:56:15;8.60;99.90
55369;DHT22;41247;49.736;8.752;2023-03-14T07:59:55;8.60;99.90
55369;DHT22;41247;49.736;8.752;2023-03-14T08:03:36;8.70;99.90
55369;DHT22;41247;49.736;8.752;2023-03-14T08:07:17;8.70;99.90
55369;DHT22;41247;49.736;8.752;2023-03-14T08:11:03;8.70;99.90
55369;DHT22;41247;49.736;8.752;2023-03-14T08:14:45;8.80;99.90
55369;DHT22;41247;49.736;8.752;2023-03-14T08:18:25;8.80;99.90
55369;DHT22;41247;49.736;8.752;2023-03-14T08:22:06;8.80;99.90
55369;DHT22;41247;49.736;8.752;2023-03-14T08:25:49;8.90;99.90
55369;DHT22;41247;49.736;8.752;2023-03-14T08:29:30;8.90;99.90
55369;DHT22;41247;49.736;8.752;2023-03-14T08:33:11;8.90;99.90
55369;DHT22;41247;49.736;8.752;2023-03-14T08:36:51;8.90;99.90
55369;DHT22;41247;49.736;8.752;2023-03-14T08:40:32;8.90;99.90
55369;DHT22;41247;49.736;8.752;2023-03-14T08:44:12;9.00;99.90
55369;DHT22;41247;49.736;8.752;2023-03-14T08:47:53;9.00;99.90
55369;DHT22;41247;49.736;8.752;2023-03-14T08:51:34;9.10;99.90
55369;DHT22;41247;49.736;8.752;2023-03-14T08:55:14;9.20;99.90
55369;DHT22;41247;49.736;8.752;2023-03-14T08:58:55;9.20;99.90
55369;DHT22;41247;49.736;8.752;2023-03-14T09:02:35;9.20;99.90
55369;DHT22;41247;49.736;8.752;2023-03-14T09:06:16;9.30;99.90
55369;DHT22;41247;49.736;8.752;2023-03-14T09:09:57;9.40;99.90
55369;DHT22;41247;49.736;8.752;2023-03-14T09:13:37;9.50;99.90
55369;DHT22;41247;49.736;8.752;2023-03-14T09:17:18;9.40;99.90
55369;DHT22;41247;49.736;8.752;2023-03-14T09:20:58;9.40;99.90
55369;DHT22;41247;49.736;8.752;2023-03-14T09:24:40;9.40;99.90
55369;DHT22;41247;49.736;8.752;2023-03-14T09:28:21;9.50;99.90
55369;DHT22;41247;49.736;8.752;2023-03-14T09:32:02;9.70;99.90
55369;DHT22;41247;49.736;8.752;2023-03-14T09:35:42;9.70;99.90
55369;DHT22;41247;49.736;8.752;2023-03-14T09:39:23;9.70;99.90
55369;DHT22;41247;49.736;8.752;2023-03-14T09:43:04;9.90;99.90
55369;DHT22;41247;49.736;8.752;2023-03-14T09:46:49;9.90;99.90
55369;DHT22;41247;49.736;8.752;2023-03-14T09:50:48;9.80;99.90
55369;DHT22;41247;49.736;8.752;2023-03-14T09:54:49;9.80;99.90
55369;DHT22;41247;49.736;8.752;2023-03-14T09:58:31;9.70;99.90
55369;DHT22;41247;49.736;8.752;2023-03-14T10:02:19;9.80;99.90
55369;DHT22;41247;49.736;8.752;2023-03-14T10:06:01;9.80;99.90
55369;DHT22;41247;49.736;8.752;2023-03-14T10:09:50;9.70;99.90
55369;DHT22;41247;49.736;8.752;2023-03-14T10:13:31;9.50;99.90
55369;DHT22;41247;49.736;8.752;2023-03-14T10:17:13;9.30;99.90
55369;DHT22;41247;49.736;8.752;2023-03-14T10:21:09;9.00;99.90
55369;DHT22;41247;49.736;8.752;2023-03-14T10:25:04;9.00;99.90
55369;DHT22;41247;49.736;8.752;2023-03-14T10:28:50;9.20;99.90
55369;DHT22;41247;49.736;8.752;2023-03-14T10:32:37;9.40;99.90
55369;DHT22;41247;49.736;8.752;2023-03-14T10:36:24;9.50;99.90
55369;DHT22;41247;49.736;8.752;2023-03-14T10:40:13;9.50;99.90
55369;DHT22;41247;49.736;8.752;2023-03-14T10:43:56;9.30;99.90
55369;DHT22;41247;49.736;8.752;2023-03-14T10:47:48;9.30;99.90
55369;DHT22;41247;49.736;8.752;2023-03-14T10:51:29;9.20;99.90
55369;DHT22;41247;49.736;8.752;2023-03-14T10:55:11;9.20;99.90
55369;DHT22;41247;49.736;8.752;2023-03-14T10:58:54;9.20;99.90
55369;DHT22;41247;49.736;8.752;2023-03-14T11:02:53;9.20;99.90
55369;DHT22;41247;49.736;8.752;2023-03-14T11:11:02;9.10;99.90
55369;DHT22;41247;49.736;8.752;2023-03-14T11:15:02;8.80;99.90
55369;DHT22;41247;49.736;8.752;2023-03-14T11:27:19;8.60;99.90
55369;DHT22;41247;49.736;8.752;2023-03-14T11:31:23;8.50;99.90
55369;DHT22;41247;49.736;8.752;2023-03-14T11:35:29;8.50;99.90
55369;DHT22;41247;49.736;8.752;2023-03-14T11:39:18;8.40;99.90
55369;DHT22;41247;49.736;8.752;2023-03-14T11:43:15;8.40;99.90
55369;DHT22;41247;49.736;8.752;2023-03-14T11:47:10;8.40;99.90
55369;DHT22;41247;49.736;8.752;2023-03-14T11:50:57;8.40;99.90
55369;DHT22;41247;49.736;8.752;2023-03-14T11:54:49;8.40;99.90
55369;DHT22;41247;49.736;8.752;2023-03-14T11:58:34;8.30;99.90
55369;DHT22;41247;49.736;8.752;2023-03-14T12:02:25;8.30;99.90
55369;DHT22;41247;49.736;8.752;2023-03-14T12:06:24;8.30;99.90
55369;DHT22;41247;49.736;8.752;2023-03-14T12:10:09;8.30;99.90
55369;DHT22;41247;49.736;8.752;2023-03-14T12:13:51;8.30;99.90
55369;DHT22;41247;49.736;8.752;2023-03-14T12:17:38;8.30;99.90
55369;DHT22;41247;49.736;8.752;2023-03-14T12:21:20;8.30;99.90
55369;DHT22;41247;49.736;8.752;2023-03-14T12:25:27;8.20;99.90
55369;DHT22;41247;49.736;8.752;2023-03-14T12:29:11;8.20;99.90
55369;DHT22;41247;49.736;8.752;2023-03-14T12:37:14;7.80;99.90
55369;DHT22;41247;49.736;8.752;2023-03-14T12:41:14;7.70;99.90
55369;DHT22;41247;49.736;8.752;2023-03-14T12:45:26;7.50;99.90
55369;DHT22;41247;49.736;8.752;2023-03-14T12:49:09;7.30;99.90
55369;DHT22;41247;49.736;8.752;2023-03-14T12:57:01;7.20;99.90
55369;DHT22;41247;49.736;8.752;2023-03-14T13:00:55;7.10;99.90
55369;DHT22;41247;49.736;8.752;2023-03-14T13:04:54;7.20;99.90
55369;DHT22;41247;49.736;8.752;2023-03-14T13:08:44;7.40;99.90
55369;DHT22;41247;49.736;8.752;2023-03-14T13:12:28;7.70;99.90
55369;DHT22;41247;49.736;8.752;2023-03-14T13:16:20;7.80;99.90
55369;DHT22;41247;49.736;8.752;2023-03-14T13:20:09;7.80;99.90
55369;DHT22;41247;49.736;8.752;2023-03-14T13:24:20;7.70;99.90
55369;DHT22;41247;49.736;8.752;2023-03-14T13:28:02;7.70;99.90
55369;DHT22;41247;49.736;8.752;2023-03-14T13:31:45;7.60;99.90
55369;DHT22;41247;49.736;8.752;2023-03-14T13:35:29;7.50;99.90
55369;DHT22;41247;49.736;8.752;2023-03-14T13:39:17;7.70;99.90
55369;DHT22;41247;49.736;8.752;2023-03-14T13:43:49;7.90;99.90
55369;DHT22;41247;49.736;8.752;2023-03-14T13:47:14;7.90;99.90
55369;DHT22;41247;49.736;8.752;2023-03-14T13:51:07;7.80;99.90
55369;DHT22;41247;49.736;8.752;2023-03-14T13:54:48;7.60;99.90
55369;DHT22;41247;49.736;8.752;2023-03-14T13:58:30;7.40;99.90
55369;DHT22;41247;49.736;8.752;2023-03-14T14:02:15;7.30;99.90
55369;DHT22;41247;49.736;8.752;2023-03-14T14:05:57;7.10;99.90
55369;DHT22;41247;49.736;8.752;2023-03-14T14:09:39;7.10;99.90
55369;DHT22;41247;49.736;8.752;2023-03-14T14:13:23;7.30;99.90
55369;DHT22;41247;49.736;8.752;2023-03-14T14:17:08;7.30;99.90
55369;DHT22;41247;49.736;8.752;2023-03-14T14:20:51;7.30;99.90
55369;DHT22;41247;49.736;8.752;2023-03-14T14:24:32;7.10;99.90
55369;DHT22;41247;49.736;8.752;2023-03-14T14:28:27;7.20;99.90
55369;DHT22;41247;49.736;8.752;2023-03-14T14:32:14;7.40;99.90
55369;DHT22;41247;49.736;8.752;2023-03-14T14:35:59;7.40;99.90
55369;DHT22;41247;49.736;8.752;2023-03-14T14:39:40;7.40;99.90
55369;DHT22;41247;49.736;8.752;2023-03-14T14:43:28;7.40;99.90
55369;DHT22;41247;49.736;8.752;2023-03-14T14:47:15;7.30;99.90
55369;DHT22;41247;49.736;8.752;2023-03-14T14:51:01;8.90;99.90
55369;DHT22;41247;49.736;8.752;2023-03-14T14:54:58;8.80;99.90
55369;DHT22;41247;49.736;8.752;2023-03-14T14:58:45;8.20;99.90
55369;DHT22;41247;49.736;8.752;2023-03-14T15:02:30;7.90;99.90
55369;DHT22;41247;49.736;8.752;2023-03-14T15:06:32;7.60;99.90
55369;DHT22;41247;49.736;8.752;2023-03-14T15:10:16;7.30;99.90
55369;DHT22;41247;49.736;8.752;2023-03-14T15:13:58;7.20;99.90
55369;DHT22;41247;49.736;8.752;2023-03-14T15:17:39;7.10;99.90
55369;DHT22;41247;49.736;8.752;2023-03-14T15:21:19;7.10;99.90
55369;DHT22;41247;49.736;8.752;2023-03-14T15:25:00;7.00;99.90
55369;DHT22;41247;49.736;8.752;2023-03-14T15:28:40;7.00;99.90
55369;DHT22;41247;49.736;8.752;2023-03-14T15:32:21;6.90;99.90
55369;DHT22;41247;49.736;8.752;2023-03-14T15:36:03;6.90;99.90
55369;DHT22;41247;49.736;8.752;2023-03-14T15:39:44;6.80;99.90
55369;DHT22;41247;49.736;8.752;2023-03-14T15:43:25;6.80;99.90
55369;DHT22;41247;49.736;8.752;2023-03-14T15:47:06;6.80;99.90
55369;DHT22;41247;49.736;8.752;2023-03-14T15:50:47;6.80;99.90
55369;DHT22;41247;49.736;8.752;2023-03-14T15:54:28;6.80;99.90
55369;DHT22;41247;49.736;8.752;2023-03-14T15:58:19;6.80;99.90
55369;DHT22;41247;49.736;8.752;2023-03-14T16:02:00;6.80;99.90
55369;DHT22;41247;49.736;8.752;2023-03-14T16:05:41;6.90;99.90
55369;DHT22;41247;49.736;8.752;2023-03-14T16:09:21;6.90;99.90
55369;DHT22;41247;49.736;8.752;2023-03-14T16:13:02;7.00;99.90
55369;DHT22;41247;49.736;8.752;2023-03-14T16:16:43;7.40;99.90
55369;DHT22;41247;49.736;8.752;2023-03-14T16:20:23;7.50;99.90
55369;DHT22;41247;49.736;8.752;2023-03-14T16:24:04;7.80;99.90
55369;DHT22;41247;49.736;8.752;2023-03-14T16:27:45;7.90;99.90
55369;DHT22;41247;49.736;8.752;2023-03-14T16:31:25;8.00;99.90
55369;DHT22;41247;49.736;8.752;2023-03-14T16:35:07;8.00;99.90
55369;DHT22;41247;49.736;8.752;2023-03-14T16:38:47;8.00;99.90
55369;DHT22;41247;49.736;8.752;2023-03-14T16:42:28;8.00;99.90
55369;DHT22;41247;49.736;8.752;2023-03-14T16:46:14;7.80;99.90
55369;DHT22;41247;49.736;8.752;2023-03-14T16:49:55;8.20;99.90
55369;DHT22;41247;49.736;8.752;2023-03-14T16:53:36;8.00;99.90
55369;DHT22;41247;49.736;8.752;2023-03-14T16:57:17;7.60;99.90
55369;DHT22;41247;49.736;8.752;2023-03-14T17:00:57;7.30;99.90
55369;DHT22;41247;49.736;8.752;2023-03-14T17:04:39;7.10;99.90
55369;DHT22;41247;49.736;8.752;2023-03-14T17:08:20;6.90;99.90
55369;DHT22;41247;49.736;8.752;2023-03-14T17:12:01;6.80;99.90
55369;DHT22;41247;49.736;8.752;2023-03-14T17:15:45;6.60;99.90
55369;DHT22;41247;49.736;8.752;2023-03-14T17:19:26;6.50;99.90
55369;DHT22;41247;49.736;8.752;2023-03-14T17:23:07;6.50;99.90
55369;DHT22;41247;49.736;8.752;2023-03-14T17:26:48;6.40;99.90
55369;DHT22;41247;49.736;8.752;2023-03-14T17:30:29;6.30;99.90
55369;DHT22;41247;49.736;8.752;2023-03-14T17:34:09;6.30;99.90
55369;DHT22;41247;49.736;8.752;2023-03-14T17:37:50;6.20;99.90
55369;DHT22;41247;49.736;8.752;2023-03-14T17:41:30;6.20;99.90
55369;DHT22;41247;49.736;8.752;2023-03-14T17:45:11;6.10;99.90
55369;DHT22;41247;49.736;8.752;2023-03-14T17:48:51;6.10;99.90
55369;DHT22;41247;49.736;8.752;2023-03-14T17:52:33;6.00;99.90
55369;DHT22;41247;49.736;8.752;2023-03-14T17:56:14;6.00;99.90
55369;DHT22;41247;49.736;8.752;2023-03-14T17:59:55;5.90;99.90
55369;DHT22;41247;49.736;8.752;2023-03-14T18:03:36;5.80;99.90
55369;DHT22;41247;49.736;8.752;2023-03-14T18:07:17;5.70;99.90
55369;DHT22;41247;49.736;8.752;2023-03-14T18:10:59;5.70;99.90
55369;DHT22;41247;49.736;8.752;2023-03-14T18:14:39;5.60;99.90
55369;DHT22;41247;49.736;8.752;2023-03-14T18:18:20;5.50;99.90
55369;DHT22;41247;49.736;8.752;2023-03-14T18:22:00;5.40;99.90
55369;DHT22;41247;49.736;8.752;2023-03-14T18:25:41;5.40;99.90
55369;DHT22;41247;49.736;8.752;2023-03-14T18:29:21;5.40;99.90
55369;DHT22;41247;49.736;8.752;2023-03-14T18:33:02;5.20;99.90
55369;DHT22;41247;49.736;8.752;2023-03-14T18:36:43;5.10;99.90
55369;DHT22;41247;49.736;8.752;2023-03-14T18:40:23;5.00;99.90
55369;DHT22;41247;49.736;8.752;2023-03-14T18:44:04;5.00;99.90
55369;DHT22;41247;49.736;8.752;2023-03-14T18:47:45;4.90;99.90
55369;DHT22;41247;49.736;8.752;2023-03-14T18:51:26;4.80;99.90
55369;DHT22;41247;49.736;8.752;2023-03-14T18:55:07;4.70;99.90
55369;DHT22;41247;49.736;8.752;2023-03-14T18:58:48;4.50;99.90
55369;DHT22;41247;49.736;8.752;2023-03-14T19:02:29;4.40;99.90
55369;DHT22;41247;49.736;8.752;2023-03-14T19:06:10;4.30;99.90
55369;DHT22;41247;49.736;8.752;2023-03-14T19:09:50;4.40;99.90
55369;DHT22;41247;49.736;8.752;2023-03-14T19:13:32;4.40;99.90
55369;DHT22;41247;49.736;8.752;2023-03-14T19:17:14;4.40;99.90
55369;DHT22;41247;49.736;8.752;2023-03-14T19:21:09;4.30;99.90
55369;DHT22;41247;49.736;8.752;2023-03-14T19:24:51;4.30;99.90
55369;DHT22;41247;49.736;8.752;2023-03-14T19:28:32;4.30;99.90
55369;DHT22;41247;49.736;8.752;2023-03-14T19:32:15;4.20;99.90
55369;DHT22;41247;49.736;8.752;2023-03-14T19:35:58;4.10;99.90
55369;DHT22;41247;49.736;8.752;2023-03-14T19:39:38;3.90;99.90
55369;DHT22;41247;49.736;8.752;2023-03-14T19:43:19;3.70;99.90
55369;DHT22;41247;49.736;8.752;2023-03-14T19:47:02;3.60;99.90
55369;DHT22;41247;49.736;8.752;2023-03-14T19:50:43;3.40;99.90
55369;DHT22;41247;49.736;8.752;2023-03-14T19:54:24;3.30;99.90
55369;DHT22;41247;49.736;8.752;2023-03-14T19:58:05;3.20;99.90
55369;DHT22;41247;49.736;8.752;2023-03-14T20:01:45;3.10;99.90
55369;DHT22;41247;49.736;8.752;2023-03-14T20:05:26;3.10;99.90
55369;DHT22;41247;49.736;8.752;2023-03-14T20:09:07;3.10;99.90
55369;DHT22;41247;49.736;8.752;2023-03-14T20:12:50;3.10;99.90
55369;DHT22;41247;49.736;8.752;2023-03-14T20:16:30;3.10;99.90
55369;DHT22;41247;49.736;8.752;2023-03-14T20:20:11;3.10;99.90
55369;DHT22;41247;49.736;8.752;2023-03-14T20:23:52;3.00;99.90
55369;DHT22;41247;49.736;8.752;2023-03-14T20:27:33;3.00;99.90
55369;DHT22;41247;49.736;8.752;2023-03-14T20:31:13;3.00;99.90
55369;DHT22;41247;49.736;8.752;2023-03-14T20:34:54;3.00;99.90
55369;DHT22;41247;49.736;8.752;2023-03-14T20:38:35;3.00;99.90
55369;DHT22;41247;49.736;8.752;2023-03-14T20:42:16;2.90;99.90
55369;DHT22;41247;49.736;8.752;2023-03-14T20:45:58;2.80;99.90
55369;DHT22;41247;49.736;8.752;2023-03-14T20:49:39;2.70;99.90
55369;DHT22;41247;49.736;8.752;2023-03-14T20:53:20;2.50;99.90
55369;DHT22;41247;49.736;8.752;2023-03-14T20:57:01;2.60;99.90
55369;DHT22;41247;49.736;8.752;2023-03-14T21:00:47;2.60;99.90
55369;DHT22;41247;49.736;8.752;2023-03-14T21:04:29;2.60;99.90
55369;DHT22;41247;49.736;8.752;2023-03-14T21:08:10;2.50;99.90
55369;DHT22;41247;49.736;8.752;2023-03-14T21:11:51;2.50;99.90
55369;DHT22;41247;49.736;8.752;2023-03-14T21:15:32;2.30;99.90
55369;DHT22;41247;49.736;8.752;2023-03-14T21:19:12;2.30;99.90
55369;DHT22;41247;49.736;8.752;2023-03-14T21:22:53;2.30;99.90
55369;DHT22;41247;49.736;8.752;2023-03-14T21:26:34;2.30;99.90
55369;DHT22;41247;49.736;8.752;2023-03-14T21:30:15;2.20;99.90
55369;DHT22;41247;49.736;8.752;2023-03-14T21:33:55;2.20;99.90
55369;DHT22;41247;49.736;8.752;2023-03-14T21:37:36;2.20;99.90
55369;DHT22;41247;49.736;8.752;2023-03-14T21:41:16;2.10;99.90
55369;DHT22;41247;49.736;8.752;2023-03-14T21:44:57;2.10;99.90
55369;DHT22;41247;49.736;8.752;2023-03-14T21:48:38;2.00;99.90
55369;DHT22;41247;49.736;8.752;2023-03-14T21:52:19;1.80;99.90
55369;DHT22;41247;49.736;8.752;2023-03-14T21:56:00;1.80;99.90
55369;DHT22;41247;49.736;8.752;2023-03-14T21:59:42;1.70;99.90
55369;DHT22;41247;49.736;8.752;2023-03-14T22:03:24;1.60;99.90
55369;DHT22;41247;49.736;8.752;2023-03-14T22:07:10;1.60;99.90
55369;DHT22;41247;49.736;8.752;2023-03-14T22:10:53;1.60;99.90
55369;DHT22;41247;49.736;8.752;2023-03-14T22:14:34;1.70;99.90
55369;DHT22;41247;49.736;8.752;2023-03-14T22:18:16;1.80;99.90
55369;DHT22;41247;49.736;8.752;2023-03-14T22:21:58;1.80;99.90
55369;DHT22;41247;49.736;8.752;2023-03-14T22:25:41;1.80;99.90
55369;DHT22;41247;49.736;8.752;2023-03-14T22:29:22;1.80;99.90
55369;DHT22;41247;49.736;8.752;2023-03-14T22:33:03;1.90;99.90
55369;DHT22;41247;49.736;8.752;2023-03-14T22:36:44;1.90;99.90
55369;DHT22;41247;49.736;8.752;2023-03-14T22:40:24;1.90;99.90
55369;DHT22;41247;49.736;8.752;2023-03-14T22:44:05;1.80;99.90
55369;DHT22;41247;49.736;8.752;2023-03-14T22:47:45;1.70;99.90
55369;DHT22;41247;49.736;8.752;2023-03-14T22:51:26;1.70;99.90
55369;DHT22;41247;49.736;8.752;2023-03-14T22:55:07;1.70;99.90
55369;DHT22;41247;49.736;8.752;2023-03-14T22:58:48;1.70;99.90
55369;DHT22;41247;49.736;8.752;2023-03-14T23:02:28;1.80;99.90
55369;DHT22;41247;49.736;8.752;2023-03-14T23:06:09;1.80;99.90
55369;DHT22;41247;49.736;8.752;2023-03-14T23:09:50;1.80;99.90
55369;DHT22;41247;49.736;8.752;2023-03-14T23:13:31;1.70;99.90
55369;DHT22;41247;49.736;8.752;2023-03-14T23:17:12;1.70;99.90
55369;DHT22;41247;49.736;8.752;2023-03-14T23:21:11;1.70;99.90
55369;DHT22;41247;49.736;8.752;2023-03-14T23:24:53;1.70;99.90
55369;DHT22;41247;49.736;8.752;2023-03-14T23:28:34;1.70;99.90
55369;DHT22;41247;49.736;8.752;2023-03-14T23:32:15;1.70;99.90
55369;DHT22;41247;49.736;8.752;2023-03-14T23:35:57;1.70;99.90
55369;DHT22;41247;49.736;8.752;2023-03-14T23:39:39;1.70;99.90
55369;DHT22;41247;49.736;8.752;2023-03-14T23:43:20;1.70;99.90
55369;DHT22;41247;49.736;8.752;2023-03-14T23:47:01;1.60;99.90
55369;DHT22;41247;49.736;8.752;2023-03-14T23:50:41;1.60;99.90
55369;DHT22;41247;49.736;8.752;2023-03-14T23:54:22;1.60;99.90
55369;DHT22;41247;49.736;8.752;2023-03-14T23:58:03;1.70;99.90
